sensor_id;sensor_type;location;lat;lon;timestamp;P1;durP1;ratioP1;P2;durP2;ratioP2
75009;SDS011;63564;46.840;18.336;2022-12-07T00:01:39;22.80;;;11.20;;
75009;SDS011;63564;46.840;18.336;2022-12-07T00:04:41;21.38;;;10.70;;
75009;SDS011;63564;46.840;18.336;2022-12-07T00:07:41;23.67;;;12.10;;
75009;SDS011;63564;46.840;18.336;2022-12-07T00:10:41;21.47;;;11.70;;
75009;SDS011;63564;46.840;18.336;2022-12-07T00:13:42;24.90;;;11.63;;
75009;SDS011;63564;46.840;18.336;2022-12-07T00:16:43;20.42;;;10.82;;
75009;SDS011;63564;46.840;18.336;2022-12-07T00:19:44;21.63;;;11.15;;
75009;SDS011;63564;46.840;18.336;2022-12-07T00:22:45;22.37;;;10.70;;
75009;SDS011;63564;46.840;18.336;2022-12-07T00:25:45;21.93;;;10.87;;
75009;SDS011;63564;46.840;18.336;2022-12-07T00:28:48;22.10;;;11.98;;
75009;SDS011;63564;46.840;18.336;2022-12-07T00:31:50;20.48;;;10.05;;
75009;SDS011;63564;46.840;18.336;2022-12-07T00:34:51;23.90;;;11.87;;
75009;SDS011;63564;46.840;18.336;2022-12-07T00:37:51;24.00;;;12.03;;
75009;SDS011;63564;46.840;18.336;2022-12-07T00:40:55;22.37;;;10.40;;
75009;SDS011;63564;46.840;18.336;2022-12-07T00:43:57;21.08;;;10.82;;
75009;SDS011;63564;46.840;18.336;2022-12-07T00:46:58;21.13;;;10.40;;
75009;SDS011;63564;46.840;18.336;2022-12-07T00:49:58;18.90;;;9.80;;
75009;SDS011;63564;46.840;18.336;2022-12-07T00:53:00;21.05;;;10.50;;
75009;SDS011;63564;46.840;18.336;2022-12-07T00:56:33;20.60;;;10.23;;
75009;SDS011;63564;46.840;18.336;2022-12-07T00:59:27;20.67;;;9.88;;
75009;SDS011;63564;46.840;18.336;2022-12-07T01:02:27;21.13;;;10.67;;
75009;SDS011;63564;46.840;18.336;2022-12-07T01:05:28;21.93;;;10.63;;
75009;SDS011;63564;46.840;18.336;2022-12-07T01:08:28;23.07;;;10.60;;
75009;SDS011;63564;46.840;18.336;2022-12-07T01:11:29;21.52;;;9.75;;
75009;SDS011;63564;46.840;18.336;2022-12-07T01:14:30;22.50;;;11.75;;
75009;SDS011;63564;46.840;18.336;2022-12-07T01:17:31;24.87;;;12.00;;
75009;SDS011;63564;46.840;18.336;2022-12-07T01:20:31;22.92;;;11.30;;
75009;SDS011;63564;46.840;18.336;2022-12-07T01:23:32;23.85;;;11.98;;
75009;SDS011;63564;46.840;18.336;2022-12-07T01:26:33;22.77;;;11.87;;
75009;SDS011;63564;46.840;18.336;2022-12-07T01:29:34;25.23;;;12.50;;
75009;SDS011;63564;46.840;18.336;2022-12-07T01:32:35;26.15;;;12.80;;
75009;SDS011;63564;46.840;18.336;2022-12-07T01:35:36;26.10;;;12.10;;
75009;SDS011;63564;46.840;18.336;2022-12-07T01:38:36;25.77;;;12.73;;
75009;SDS011;63564;46.840;18.336;2022-12-07T01:41:37;27.53;;;13.57;;
75009;SDS011;63564;46.840;18.336;2022-12-07T01:48:36;23.38;;;12.07;;
75009;SDS011;63564;46.840;18.336;2022-12-07T01:51:40;27.58;;;14.15;;
75009;SDS011;63564;46.840;18.336;2022-12-07T01:54:42;26.63;;;13.15;;
75009;SDS011;63564;46.840;18.336;2022-12-07T01:57:48;25.77;;;12.43;;
75009;SDS011;63564;46.840;18.336;2022-12-07T02:00:51;26.73;;;13.15;;
75009;SDS011;63564;46.840;18.336;2022-12-07T02:03:52;21.80;;;11.43;;
75009;SDS011;63564;46.840;18.336;2022-12-07T02:06:53;25.13;;;12.87;;
75009;SDS011;63564;46.840;18.336;2022-12-07T02:09:54;24.52;;;12.63;;
75009;SDS011;63564;46.840;18.336;2022-12-07T02:13:01;25.83;;;12.37;;
75009;SDS011;63564;46.840;18.336;2022-12-07T02:19:23;29.73;;;14.10;;
75009;SDS011;63564;46.840;18.336;2022-12-07T02:29:24;29.70;;;14.68;;
75009;SDS011;63564;46.840;18.336;2022-12-07T02:32:39;29.70;;;15.38;;
75009;SDS011;63564;46.840;18.336;2022-12-07T02:39:17;31.88;;;14.50;;
75009;SDS011;63564;46.840;18.336;2022-12-07T02:42:24;29.65;;;15.00;;
75009;SDS011;63564;46.840;18.336;2022-12-07T02:45:31;29.17;;;14.17;;
75009;SDS011;63564;46.840;18.336;2022-12-07T02:48:34;28.65;;;14.48;;
75009;SDS011;63564;46.840;18.336;2022-12-07T02:51:38;30.42;;;14.93;;
75009;SDS011;63564;46.840;18.336;2022-12-07T02:54:41;28.40;;;13.93;;
75009;SDS011;63564;46.840;18.336;2022-12-07T03:00:51;27.90;;;13.60;;
75009;SDS011;63564;46.840;18.336;2022-12-07T03:04:06;25.95;;;13.30;;
75009;SDS011;63564;46.840;18.336;2022-12-07T03:17:13;27.05;;;13.05;;
75009;SDS011;63564;46.840;18.336;2022-12-07T03:20:17;25.10;;;12.60;;
75009;SDS011;63564;46.840;18.336;2022-12-07T03:23:21;25.35;;;13.05;;
75009;SDS011;63564;46.840;18.336;2022-12-07T03:26:29;22.92;;;11.50;;
75009;SDS011;63564;46.840;18.336;2022-12-07T03:29:43;27.38;;;13.07;;
75009;SDS011;63564;46.840;18.336;2022-12-07T03:33:02;31.15;;;13.10;;
75009;SDS011;63564;46.840;18.336;2022-12-07T03:36:13;25.90;;;12.75;;
75009;SDS011;63564;46.840;18.336;2022-12-07T03:39:22;27.77;;;13.85;;
75009;SDS011;63564;46.840;18.336;2022-12-07T03:42:28;26.47;;;12.40;;
75009;SDS011;63564;46.840;18.336;2022-12-07T03:45:40;23.35;;;11.27;;
75009;SDS011;63564;46.840;18.336;2022-12-07T03:48:50;21.98;;;10.60;;
75009;SDS011;63564;46.840;18.336;2022-12-07T03:52:21;25.00;;;12.30;;
75009;SDS011;63564;46.840;18.336;2022-12-07T03:55:29;24.08;;;11.52;;
75009;SDS011;63564;46.840;18.336;2022-12-07T03:58:32;23.65;;;11.52;;
75009;SDS011;63564;46.840;18.336;2022-12-07T04:01:34;24.83;;;12.65;;
75009;SDS011;63564;46.840;18.336;2022-12-07T04:04:34;22.43;;;12.03;;
75009;SDS011;63564;46.840;18.336;2022-12-07T04:07:35;23.80;;;11.80;;
75009;SDS011;63564;46.840;18.336;2022-12-07T04:10:35;22.30;;;11.68;;
75009;SDS011;63564;46.840;18.336;2022-12-07T04:13:36;24.40;;;11.40;;
75009;SDS011;63564;46.840;18.336;2022-12-07T04:16:57;23.52;;;11.38;;
75009;SDS011;63564;46.840;18.336;2022-12-07T04:19:58;21.55;;;10.43;;
75009;SDS011;63564;46.840;18.336;2022-12-07T04:22:58;22.77;;;11.53;;
75009;SDS011;63564;46.840;18.336;2022-12-07T04:25:59;21.47;;;11.20;;
75009;SDS011;63564;46.840;18.336;2022-12-07T04:28:59;50.33;;;13.27;;
75009;SDS011;63564;46.840;18.336;2022-12-07T04:32:00;33.33;;;11.40;;
75009;SDS011;63564;46.840;18.336;2022-12-07T04:35:00;26.77;;;10.80;;
75009;SDS011;63564;46.840;18.336;2022-12-07T04:38:00;24.80;;;11.10;;
75009;SDS011;63564;46.840;18.336;2022-12-07T04:41:04;24.33;;;10.77;;
75009;SDS011;63564;46.840;18.336;2022-12-07T04:44:08;28.33;;;11.52;;
75009;SDS011;63564;46.840;18.336;2022-12-07T04:47:14;24.67;;;11.17;;
75009;SDS011;63564;46.840;18.336;2022-12-07T04:50:15;25.40;;;11.55;;
75009;SDS011;63564;46.840;18.336;2022-12-07T04:53:15;24.70;;;10.90;;
75009;SDS011;63564;46.840;18.336;2022-12-07T04:56:16;30.17;;;11.07;;
75009;SDS011;63564;46.840;18.336;2022-12-07T04:59:17;25.58;;;12.38;;
75009;SDS011;63564;46.840;18.336;2022-12-07T05:02:17;34.57;;;14.97;;
75009;SDS011;63564;46.840;18.336;2022-12-07T05:05:18;40.20;;;17.27;;
75009;SDS011;63564;46.840;18.336;2022-12-07T05:08:18;28.33;;;14.33;;
75009;SDS011;63564;46.840;18.336;2022-12-07T05:11:18;31.27;;;13.93;;
75009;SDS011;63564;46.840;18.336;2022-12-07T05:14:37;29.05;;;15.38;;
75009;SDS011;63564;46.840;18.336;2022-12-07T05:17:38;29.80;;;16.53;;
75009;SDS011;63564;46.840;18.336;2022-12-07T05:20:39;31.33;;;14.63;;
75009;SDS011;63564;46.840;18.336;2022-12-07T05:23:39;26.52;;;13.45;;
75009;SDS011;63564;46.840;18.336;2022-12-07T05:26:40;26.97;;;14.33;;
75009;SDS011;63564;46.840;18.336;2022-12-07T05:29:40;25.83;;;13.80;;
75009;SDS011;63564;46.840;18.336;2022-12-07T05:32:41;25.02;;;13.35;;
75009;SDS011;63564;46.840;18.336;2022-12-07T05:35:41;27.58;;;13.73;;
75009;SDS011;63564;46.840;18.336;2022-12-07T05:38:41;31.03;;;15.70;;
75009;SDS011;63564;46.840;18.336;2022-12-07T05:41:42;29.40;;;15.40;;
75009;SDS011;63564;46.840;18.336;2022-12-07T05:45:01;32.20;;;16.83;;
75009;SDS011;63564;46.840;18.336;2022-12-07T05:48:01;33.43;;;15.80;;
75009;SDS011;63564;46.840;18.336;2022-12-07T05:51:02;34.65;;;14.25;;
75009;SDS011;63564;46.840;18.336;2022-12-07T05:54:03;39.33;;;15.20;;
75009;SDS011;63564;46.840;18.336;2022-12-07T05:57:03;46.33;;;14.33;;
75009;SDS011;63564;46.840;18.336;2022-12-07T06:00:04;45.07;;;13.40;;
75009;SDS011;63564;46.840;18.336;2022-12-07T06:03:05;51.47;;;16.48;;
75009;SDS011;63564;46.840;18.336;2022-12-07T06:06:05;65.40;;;13.87;;
75009;SDS011;63564;46.840;18.336;2022-12-07T06:09:06;67.73;;;14.80;;
75009;SDS011;63564;46.840;18.336;2022-12-07T06:12:09;56.67;;;14.80;;
75009;SDS011;63564;46.840;18.336;2022-12-07T06:15:31;50.50;;;14.65;;
75009;SDS011;63564;46.840;18.336;2022-12-07T06:18:31;51.47;;;13.53;;
75009;SDS011;63564;46.840;18.336;2022-12-07T06:21:32;28.53;;;11.40;;
75009;SDS011;63564;46.840;18.336;2022-12-07T06:24:33;51.00;;;13.63;;
75009;SDS011;63564;46.840;18.336;2022-12-07T06:27:33;74.82;;;14.38;;
75009;SDS011;63564;46.840;18.336;2022-12-07T06:30:35;43.92;;;11.50;;
75009;SDS011;63564;46.840;18.336;2022-12-07T06:33:35;47.83;;;13.17;;
75009;SDS011;63564;46.840;18.336;2022-12-07T06:36:36;41.47;;;13.53;;
75009;SDS011;63564;46.840;18.336;2022-12-07T06:39:37;26.00;;;11.43;;
75009;SDS011;63564;46.840;18.336;2022-12-07T06:42:38;44.58;;;13.93;;
75009;SDS011;63564;46.840;18.336;2022-12-07T06:45:38;26.43;;;11.23;;
75009;SDS011;63564;46.840;18.336;2022-12-07T06:48:40;48.25;;;14.52;;
75009;SDS011;63564;46.840;18.336;2022-12-07T06:51:41;46.58;;;12.85;;
75009;SDS011;63564;46.840;18.336;2022-12-07T06:54:42;51.87;;;13.40;;
75009;SDS011;63564;46.840;18.336;2022-12-07T06:57:42;65.07;;;13.60;;
75009;SDS011;63564;46.840;18.336;2022-12-07T07:00:43;43.83;;;12.63;;
75009;SDS011;63564;46.840;18.336;2022-12-07T07:03:44;45.22;;;11.50;;
75009;SDS011;63564;46.840;18.336;2022-12-07T07:06:45;23.85;;;8.48;;
75009;SDS011;63564;46.840;18.336;2022-12-07T07:09:47;42.83;;;11.80;;
75009;SDS011;63564;46.840;18.336;2022-12-07T07:12:47;53.95;;;11.73;;
75009;SDS011;63564;46.840;18.336;2022-12-07T07:15:47;25.13;;;9.13;;
75009;SDS011;63564;46.840;18.336;2022-12-07T07:18:48;38.97;;;10.60;;
75009;SDS011;63564;46.840;18.336;2022-12-07T07:21:48;48.60;;;11.27;;
75009;SDS011;63564;46.840;18.336;2022-12-07T07:24:48;34.73;;;9.83;;
75009;SDS011;63564;46.840;18.336;2022-12-07T07:27:49;22.77;;;8.70;;
75009;SDS011;63564;46.840;18.336;2022-12-07T07:30:49;23.33;;;9.73;;
75009;SDS011;63564;46.840;18.336;2022-12-07T07:33:50;23.88;;;9.43;;
75009;SDS011;63564;46.840;18.336;2022-12-07T07:36:50;25.27;;;10.37;;
75009;SDS011;63564;46.840;18.336;2022-12-07T07:39:52;29.23;;;9.80;;
75009;SDS011;63564;46.840;18.336;2022-12-07T07:42:53;20.35;;;8.77;;
75009;SDS011;63564;46.840;18.336;2022-12-07T07:45:53;20.43;;;8.40;;
75009;SDS011;63564;46.840;18.336;2022-12-07T07:48:54;25.38;;;11.10;;
75009;SDS011;63564;46.840;18.336;2022-12-07T07:51:54;24.63;;;10.73;;
75009;SDS011;63564;46.840;18.336;2022-12-07T07:54:55;23.50;;;10.03;;
75009;SDS011;63564;46.840;18.336;2022-12-07T07:57:55;25.80;;;11.47;;
75009;SDS011;63564;46.840;18.336;2022-12-07T08:00:55;25.17;;;10.40;;
75009;SDS011;63564;46.840;18.336;2022-12-07T08:03:56;20.93;;;10.03;;
75009;SDS011;63564;46.840;18.336;2022-12-07T08:06:56;20.43;;;9.67;;
75009;SDS011;63564;46.840;18.336;2022-12-07T08:09:57;21.52;;;9.50;;
75009;SDS011;63564;46.840;18.336;2022-12-07T08:12:58;23.73;;;10.70;;
75009;SDS011;63564;46.840;18.336;2022-12-07T08:16:10;21.10;;;9.77;;
75009;SDS011;63564;46.840;18.336;2022-12-07T08:19:11;25.30;;;9.77;;
75009;SDS011;63564;46.840;18.336;2022-12-07T08:22:12;24.73;;;10.50;;
75009;SDS011;63564;46.840;18.336;2022-12-07T08:25:12;24.45;;;11.75;;
75009;SDS011;63564;46.840;18.336;2022-12-07T08:28:12;30.20;;;14.60;;
75009;SDS011;63564;46.840;18.336;2022-12-07T08:31:14;55.73;;;29.50;;
75009;SDS011;63564;46.840;18.336;2022-12-07T08:34:16;38.75;;;20.83;;
75009;SDS011;63564;46.840;18.336;2022-12-07T08:37:17;37.03;;;20.70;;
75009;SDS011;63564;46.840;18.336;2022-12-07T08:40:17;37.53;;;22.40;;
75009;SDS011;63564;46.840;18.336;2022-12-07T08:43:18;35.15;;;19.75;;
75009;SDS011;63564;46.840;18.336;2022-12-07T08:46:38;30.43;;;16.20;;
75009;SDS011;63564;46.840;18.336;2022-12-07T08:49:42;29.70;;;15.53;;
75009;SDS011;63564;46.840;18.336;2022-12-07T08:52:48;27.52;;;14.27;;
75009;SDS011;63564;46.840;18.336;2022-12-07T08:55:50;24.88;;;11.98;;
75009;SDS011;63564;46.840;18.336;2022-12-07T08:58:51;22.97;;;11.00;;
75009;SDS011;63564;46.840;18.336;2022-12-07T09:01:52;24.70;;;11.55;;
75009;SDS011;63564;46.840;18.336;2022-12-07T09:04:52;23.00;;;11.47;;
75009;SDS011;63564;46.840;18.336;2022-12-07T09:07:54;25.17;;;12.20;;
75009;SDS011;63564;46.840;18.336;2022-12-07T09:10:57;22.40;;;11.23;;
75009;SDS011;63564;46.840;18.336;2022-12-07T09:13:58;23.13;;;11.80;;
75009;SDS011;63564;46.840;18.336;2022-12-07T09:17:05;21.37;;;10.93;;
75009;SDS011;63564;46.840;18.336;2022-12-07T09:20:07;22.83;;;11.05;;
75009;SDS011;63564;46.840;18.336;2022-12-07T09:23:07;21.20;;;10.30;;
75009;SDS011;63564;46.840;18.336;2022-12-07T09:26:08;19.67;;;10.00;;
75009;SDS011;63564;46.840;18.336;2022-12-07T09:29:08;21.57;;;11.30;;
75009;SDS011;63564;46.840;18.336;2022-12-07T09:32:08;20.50;;;10.30;;
75009;SDS011;63564;46.840;18.336;2022-12-07T09:35:09;20.90;;;9.90;;
75009;SDS011;63564;46.840;18.336;2022-12-07T09:38:09;19.80;;;10.20;;
75009;SDS011;63564;46.840;18.336;2022-12-07T09:41:10;17.47;;;9.00;;
75009;SDS011;63564;46.840;18.336;2022-12-07T09:44:12;20.40;;;10.10;;
75009;SDS011;63564;46.840;18.336;2022-12-07T09:47:14;20.75;;;9.00;;
75009;SDS011;63564;46.840;18.336;2022-12-07T09:50:15;19.33;;;9.43;;
75009;SDS011;63564;46.840;18.336;2022-12-07T09:53:39;20.45;;;10.20;;
75009;SDS011;63564;46.840;18.336;2022-12-07T09:56:39;19.77;;;9.98;;
75009;SDS011;63564;46.840;18.336;2022-12-07T09:59:41;20.33;;;10.05;;
75009;SDS011;63564;46.840;18.336;2022-12-07T10:02:42;16.88;;;9.25;;
75009;SDS011;63564;46.840;18.336;2022-12-07T10:06:04;19.13;;;9.53;;
75009;SDS011;63564;46.840;18.336;2022-12-07T10:09:09;18.55;;;9.00;;
75009;SDS011;63564;46.840;18.336;2022-12-07T10:12:11;21.20;;;10.23;;
75009;SDS011;63564;46.840;18.336;2022-12-07T10:15:12;20.13;;;11.05;;
75009;SDS011;63564;46.840;18.336;2022-12-07T10:21:37;20.98;;;10.60;;
75009;SDS011;63564;46.840;18.336;2022-12-07T10:24:38;17.43;;;8.43;;
75009;SDS011;63564;46.840;18.336;2022-12-07T10:27:42;18.38;;;9.48;;
75009;SDS011;63564;46.840;18.336;2022-12-07T10:33:51;20.35;;;11.00;;
75009;SDS011;63564;46.840;18.336;2022-12-07T10:40:35;19.33;;;9.53;;
75009;SDS011;63564;46.840;18.336;2022-12-07T10:43:36;21.52;;;10.82;;
75009;SDS011;63564;46.840;18.336;2022-12-07T10:46:43;21.05;;;11.23;;
75009;SDS011;63564;46.840;18.336;2022-12-07T10:56:03;19.75;;;10.30;;
75009;SDS011;63564;46.840;18.336;2022-12-07T11:02:22;18.73;;;9.80;;
75009;SDS011;63564;46.840;18.336;2022-12-07T11:05:28;19.35;;;9.85;;
75009;SDS011;63564;46.840;18.336;2022-12-07T11:12:25;21.17;;;11.15;;
75009;SDS011;63564;46.840;18.336;2022-12-07T11:15:55;22.07;;;12.27;;
75009;SDS011;63564;46.840;18.336;2022-12-07T11:22:16;23.63;;;12.75;;
75009;SDS011;63564;46.840;18.336;2022-12-07T11:31:41;21.30;;;11.50;;
75009;SDS011;63564;46.840;18.336;2022-12-07T11:38:00;27.52;;;13.88;;
75009;SDS011;63564;46.840;18.336;2022-12-07T11:41:08;23.25;;;11.18;;
75009;SDS011;63564;46.840;18.336;2022-12-07T11:50:50;24.80;;;12.38;;
75009;SDS011;63564;46.840;18.336;2022-12-07T11:53:57;18.53;;;9.03;;
75009;SDS011;63564;46.840;18.336;2022-12-07T11:57:02;17.73;;;8.48;;
75009;SDS011;63564;46.840;18.336;2022-12-07T12:00:12;21.00;;;9.40;;
75009;SDS011;63564;46.840;18.336;2022-12-07T12:03:18;18.27;;;9.73;;
75009;SDS011;63564;46.840;18.336;2022-12-07T12:06:30;20.02;;;10.40;;
75009;SDS011;63564;46.840;18.336;2022-12-07T12:09:33;18.87;;;8.83;;
75009;SDS011;63564;46.840;18.336;2022-12-07T12:22:41;16.63;;;8.03;;
75009;SDS011;63564;46.840;18.336;2022-12-07T12:25:46;15.20;;;8.07;;
75009;SDS011;63564;46.840;18.336;2022-12-07T12:29:23;16.27;;;8.88;;
75009;SDS011;63564;46.840;18.336;2022-12-07T12:35:36;16.45;;;8.27;;
75009;SDS011;63564;46.840;18.336;2022-12-07T12:39:22;17.45;;;8.30;;
75009;SDS011;63564;46.840;18.336;2022-12-07T12:42:08;15.65;;;8.57;;
75009;SDS011;63564;46.840;18.336;2022-12-07T12:48:37;13.00;;;6.97;;
75009;SDS011;63564;46.840;18.336;2022-12-07T12:51:38;13.50;;;6.43;;
75009;SDS011;63564;46.840;18.336;2022-12-07T13:10:46;13.18;;;5.97;;
75009;SDS011;63564;46.840;18.336;2022-12-07T13:13:47;12.20;;;6.70;;
75009;SDS011;63564;46.840;18.336;2022-12-07T13:16:47;11.52;;;6.28;;
75009;SDS011;63564;46.840;18.336;2022-12-07T13:19:54;10.40;;;5.88;;
75009;SDS011;63564;46.840;18.336;2022-12-07T13:22:55;14.83;;;6.57;;
75009;SDS011;63564;46.840;18.336;2022-12-07T13:32:49;11.95;;;5.95;;
75009;SDS011;63564;46.840;18.336;2022-12-07T13:35:42;13.20;;;6.70;;
75009;SDS011;63564;46.840;18.336;2022-12-07T13:38:48;12.98;;;6.72;;
75009;SDS011;63564;46.840;18.336;2022-12-07T13:41:55;13.53;;;7.10;;
75009;SDS011;63564;46.840;18.336;2022-12-07T13:48:45;13.73;;;7.78;;
75009;SDS011;63564;46.840;18.336;2022-12-07T13:51:47;16.50;;;8.10;;
75009;SDS011;63564;46.840;18.336;2022-12-07T13:54:54;14.13;;;7.00;;
75009;SDS011;63564;46.840;18.336;2022-12-07T13:57:57;13.40;;;7.27;;
75009;SDS011;63564;46.840;18.336;2022-12-07T14:00:57;14.25;;;7.82;;
75009;SDS011;63564;46.840;18.336;2022-12-07T14:04:17;14.10;;;6.73;;
75009;SDS011;63564;46.840;18.336;2022-12-07T14:07:22;13.60;;;6.97;;
75009;SDS011;63564;46.840;18.336;2022-12-07T14:10:29;13.70;;;6.95;;
75009;SDS011;63564;46.840;18.336;2022-12-07T14:13:34;13.27;;;6.10;;
75009;SDS011;63564;46.840;18.336;2022-12-07T14:16:41;11.95;;;6.53;;
75009;SDS011;63564;46.840;18.336;2022-12-07T14:22:59;13.45;;;7.55;;
75009;SDS011;63564;46.840;18.336;2022-12-07T14:26:18;14.80;;;7.30;;
75009;SDS011;63564;46.840;18.336;2022-12-07T14:32:27;17.13;;;9.93;;
75009;SDS011;63564;46.840;18.336;2022-12-07T14:35:30;16.50;;;8.90;;
75009;SDS011;63564;46.840;18.336;2022-12-07T14:38:32;12.85;;;7.18;;
75009;SDS011;63564;46.840;18.336;2022-12-07T14:41:32;21.70;;;10.77;;
75009;SDS011;63564;46.840;18.336;2022-12-07T14:44:51;15.02;;;8.38;;
75009;SDS011;63564;46.840;18.336;2022-12-07T14:47:51;17.53;;;8.90;;
75009;SDS011;63564;46.840;18.336;2022-12-07T14:50:52;15.25;;;8.90;;
75009;SDS011;63564;46.840;18.336;2022-12-07T14:53:53;17.40;;;9.73;;
75009;SDS011;63564;46.840;18.336;2022-12-07T14:56:53;17.83;;;10.15;;
75009;SDS011;63564;46.840;18.336;2022-12-07T14:59:53;18.97;;;10.97;;
75009;SDS011;63564;46.840;18.336;2022-12-07T15:02:54;24.50;;;14.20;;
75009;SDS011;63564;46.840;18.336;2022-12-07T15:05:55;21.67;;;13.18;;
75009;SDS011;63564;46.840;18.336;2022-12-07T15:08:55;33.17;;;21.33;;
75009;SDS011;63564;46.840;18.336;2022-12-07T15:11:56;35.70;;;19.20;;
75009;SDS011;63564;46.840;18.336;2022-12-07T15:14:56;38.83;;;20.00;;
75009;SDS011;63564;46.840;18.336;2022-12-07T15:17:57;43.73;;;20.10;;
75009;SDS011;63564;46.840;18.336;2022-12-07T15:20:57;34.93;;;17.87;;
75009;SDS011;63564;46.840;18.336;2022-12-07T15:23:57;29.87;;;13.90;;
75009;SDS011;63564;46.840;18.336;2022-12-07T15:26:58;15.40;;;7.68;;
75009;SDS011;63564;46.840;18.336;2022-12-07T15:29:59;13.90;;;6.73;;
75009;SDS011;63564;46.840;18.336;2022-12-07T15:32:59;12.63;;;6.63;;
75009;SDS011;63564;46.840;18.336;2022-12-07T15:35:59;14.48;;;7.07;;
75009;SDS011;63564;46.840;18.336;2022-12-07T15:39:00;15.57;;;7.20;;
75009;SDS011;63564;46.840;18.336;2022-12-07T15:42:00;18.03;;;8.47;;
75009;SDS011;63564;46.840;18.336;2022-12-07T15:45:01;14.97;;;6.97;;
75009;SDS011;63564;46.840;18.336;2022-12-07T15:48:04;14.15;;;6.93;;
75009;SDS011;63564;46.840;18.336;2022-12-07T15:51:08;14.23;;;7.07;;
75009;SDS011;63564;46.840;18.336;2022-12-07T15:54:27;17.83;;;9.90;;
75009;SDS011;63564;46.840;18.336;2022-12-07T15:57:29;23.43;;;13.73;;
75009;SDS011;63564;46.840;18.336;2022-12-07T16:00:30;14.68;;;7.22;;
75009;SDS011;63564;46.840;18.336;2022-12-07T16:03:30;14.43;;;7.20;;
75009;SDS011;63564;46.840;18.336;2022-12-07T16:06:31;13.43;;;6.65;;
75009;SDS011;63564;46.840;18.336;2022-12-07T16:09:31;13.77;;;6.90;;
75009;SDS011;63564;46.840;18.336;2022-12-07T16:12:32;14.23;;;6.83;;
75009;SDS011;63564;46.840;18.336;2022-12-07T16:15:32;12.70;;;6.50;;
75009;SDS011;63564;46.840;18.336;2022-12-07T16:18:33;12.23;;;6.30;;
75009;SDS011;63564;46.840;18.336;2022-12-07T16:21:34;13.00;;;6.63;;
75009;SDS011;63564;46.840;18.336;2022-12-07T16:24:35;12.95;;;6.40;;
75009;SDS011;63564;46.840;18.336;2022-12-07T16:27:35;15.10;;;7.43;;
75009;SDS011;63564;46.840;18.336;2022-12-07T16:30:36;14.67;;;7.07;;
75009;SDS011;63564;46.840;18.336;2022-12-07T16:33:36;16.63;;;8.30;;
75009;SDS011;63564;46.840;18.336;2022-12-07T16:36:38;16.23;;;8.10;;
75009;SDS011;63564;46.840;18.336;2022-12-07T16:39:39;16.10;;;6.97;;
75009;SDS011;63564;46.840;18.336;2022-12-07T16:42:39;14.80;;;7.35;;
75009;SDS011;63564;46.840;18.336;2022-12-07T16:45:40;14.07;;;7.40;;
75009;SDS011;63564;46.840;18.336;2022-12-07T16:48:40;14.63;;;7.37;;
75009;SDS011;63564;46.840;18.336;2022-12-07T16:51:41;18.45;;;8.70;;
75009;SDS011;63564;46.840;18.336;2022-12-07T16:54:44;20.10;;;9.47;;
75009;SDS011;63564;46.840;18.336;2022-12-07T16:57:45;16.98;;;9.27;;
75009;SDS011;63564;46.840;18.336;2022-12-07T17:00:46;19.43;;;11.17;;
75009;SDS011;63564;46.840;18.336;2022-12-07T17:03:46;24.87;;;13.27;;
75009;SDS011;63564;46.840;18.336;2022-12-07T17:06:46;24.58;;;12.95;;
75009;SDS011;63564;46.840;18.336;2022-12-07T17:09:47;24.13;;;13.00;;
75009;SDS011;63564;46.840;18.336;2022-12-07T17:12:48;40.83;;;21.93;;
75009;SDS011;63564;46.840;18.336;2022-12-07T17:15:59;37.85;;;20.92;;
75009;SDS011;63564;46.840;18.336;2022-12-07T17:19:05;31.10;;;16.73;;
75009;SDS011;63564;46.840;18.336;2022-12-07T17:22:06;76.40;;;34.95;;
75009;SDS011;63564;46.840;18.336;2022-12-07T17:25:07;39.47;;;20.13;;
75009;SDS011;63564;46.840;18.336;2022-12-07T17:28:07;33.67;;;17.60;;
75009;SDS011;63564;46.840;18.336;2022-12-07T17:31:09;19.08;;;8.02;;
75009;SDS011;63564;46.840;18.336;2022-12-07T17:34:11;17.80;;;8.30;;
75009;SDS011;63564;46.840;18.336;2022-12-07T17:37:12;17.95;;;8.38;;
75009;SDS011;63564;46.840;18.336;2022-12-07T17:40:14;16.80;;;8.60;;
75009;SDS011;63564;46.840;18.336;2022-12-07T17:43:15;17.10;;;8.52;;
75009;SDS011;63564;46.840;18.336;2022-12-07T17:46:15;16.93;;;8.33;;
75009;SDS011;63564;46.840;18.336;2022-12-07T17:49:15;17.90;;;9.13;;
75009;SDS011;63564;46.840;18.336;2022-12-07T17:52:16;18.70;;;9.82;;
75009;SDS011;63564;46.840;18.336;2022-12-07T17:55:35;21.63;;;10.27;;
75009;SDS011;63564;46.840;18.336;2022-12-07T17:58:36;19.15;;;9.88;;
75009;SDS011;63564;46.840;18.336;2022-12-07T18:01:37;21.77;;;10.60;;
75009;SDS011;63564;46.840;18.336;2022-12-07T18:04:38;18.73;;;9.30;;
75009;SDS011;63564;46.840;18.336;2022-12-07T18:07:40;20.42;;;10.13;;
75009;SDS011;63564;46.840;18.336;2022-12-07T18:10:41;20.40;;;10.07;;
75009;SDS011;63564;46.840;18.336;2022-12-07T18:13:42;22.83;;;10.23;;
75009;SDS011;63564;46.840;18.336;2022-12-07T18:16:42;22.77;;;10.97;;
75009;SDS011;63564;46.840;18.336;2022-12-07T18:19:43;21.73;;;10.80;;
75009;SDS011;63564;46.840;18.336;2022-12-07T18:22:44;23.15;;;11.88;;
75009;SDS011;63564;46.840;18.336;2022-12-07T18:25:46;23.10;;;11.33;;
75009;SDS011;63564;46.840;18.336;2022-12-07T18:28:50;22.05;;;10.30;;
75009;SDS011;63564;46.840;18.336;2022-12-07T18:31:51;23.30;;;11.23;;
75009;SDS011;63564;46.840;18.336;2022-12-07T18:34:52;23.23;;;11.13;;
75009;SDS011;63564;46.840;18.336;2022-12-07T18:37:53;24.80;;;11.68;;
75009;SDS011;63564;46.840;18.336;2022-12-07T18:40:53;26.93;;;13.83;;
75009;SDS011;63564;46.840;18.336;2022-12-07T18:43:54;29.08;;;13.43;;
75009;SDS011;63564;46.840;18.336;2022-12-07T18:46:55;28.57;;;13.43;;
75009;SDS011;63564;46.840;18.336;2022-12-07T18:49:56;27.52;;;13.10;;
75009;SDS011;63564;46.840;18.336;2022-12-07T18:52:57;24.27;;;12.47;;
75009;SDS011;63564;46.840;18.336;2022-12-07T18:59:12;27.63;;;12.90;;
75009;SDS011;63564;46.840;18.336;2022-12-07T19:02:32;30.85;;;14.13;;
75009;SDS011;63564;46.840;18.336;2022-12-07T19:05:32;26.47;;;13.73;;
75009;SDS011;63564;46.840;18.336;2022-12-07T19:08:33;26.60;;;13.68;;
75009;SDS011;63564;46.840;18.336;2022-12-07T19:11:36;30.23;;;14.17;;
75009;SDS011;63564;46.840;18.336;2022-12-07T19:14:50;25.25;;;12.40;;
75009;SDS011;63564;46.840;18.336;2022-12-07T19:17:51;26.30;;;12.98;;
75009;SDS011;63564;46.840;18.336;2022-12-07T19:20:52;25.87;;;13.00;;
75009;SDS011;63564;46.840;18.336;2022-12-07T19:23:52;23.57;;;11.90;;
75009;SDS011;63564;46.840;18.336;2022-12-07T19:26:54;26.73;;;12.38;;
75009;SDS011;63564;46.840;18.336;2022-12-07T19:29:55;22.83;;;12.63;;
75009;SDS011;63564;46.840;18.336;2022-12-07T19:32:56;24.43;;;12.23;;
75009;SDS011;63564;46.840;18.336;2022-12-07T19:35:57;27.35;;;13.02;;
75009;SDS011;63564;46.840;18.336;2022-12-07T19:38:58;26.55;;;12.77;;
75009;SDS011;63564;46.840;18.336;2022-12-07T19:42:00;25.70;;;13.27;;
75009;SDS011;63564;46.840;18.336;2022-12-07T19:45:02;24.75;;;12.38;;
75009;SDS011;63564;46.840;18.336;2022-12-07T19:48:04;26.52;;;12.48;;